sensor_id;sensor_type;location;lat;lon;timestamp;pressure;altitude;pressure_sealevel;temperature;humidity
8298;BME280;4187;42.778;23.242;2024-01-11T00:01:16;96212.03;;;-7.22;100.00
8298;BME280;4187;42.778;23.242;2024-01-11T00:03:43;96279.03;;;-6.73;100.00
8298;BME280;4187;42.778;23.242;2024-01-11T00:06:10;96275.50;;;-6.68;100.00
8298;BME280;4187;42.778;23.242;2024-01-11T00:08:37;96277.19;;;-6.63;100.00
8298;BME280;4187;42.778;23.242;2024-01-11T00:11:04;96275.41;;;-6.57;100.00
8298;BME280;4187;42.778;23.242;2024-01-11T00:13:31;96268.41;;;-6.47;100.00
8298;BME280;4187;42.778;23.242;2024-01-11T00:15:58;96267.47;;;-6.39;100.00
8298;BME280;4187;42.778;23.242;2024-01-11T00:18:26;96231.66;;;-6.51;100.00
8298;BME280;4187;42.778;23.242;2024-01-11T00:20:53;96271.50;;;-6.23;100.00
8298;BME280;4187;42.778;23.242;2024-01-11T00:23:20;96266.31;;;-6.17;100.00
8298;BME280;4187;42.778;23.242;2024-01-11T00:25:48;96264.31;;;-5.99;100.00
8298;BME280;4187;42.778;23.242;2024-01-11T00:28:15;96265.25;;;-6.05;100.00
8298;BME280;4187;42.778;23.242;2024-01-11T00:30:42;96267.66;;;-5.94;100.00
8298;BME280;4187;42.778;23.242;2024-01-11T00:33:09;96228.63;;;-6.18;100.00
8298;BME280;4187;42.778;23.242;2024-01-11T00:35:37;96270.19;;;-5.91;100.00
8298;BME280;4187;42.778;23.242;2024-01-11T00:38:04;96259.94;;;-5.94;100.00
8298;BME280;4187;42.778;23.242;2024-01-11T00:40:30;96224.31;;;-6.14;100.00
8298;BME280;4187;42.778;23.242;2024-01-11T00:42:57;96254.75;;;-5.90;100.00
8298;BME280;4187;42.778;23.242;2024-01-11T00:45:24;96254.69;;;-5.85;100.00
8298;BME280;4187;42.778;23.242;2024-01-11T00:47:51;96251.16;;;-5.81;100.00
8298;BME280;4187;42.778;23.242;2024-01-11T00:50:17;96245.94;;;-5.78;100.00
8298;BME280;4187;42.778;23.242;2024-01-11T00:52:45;96246.97;;;-5.85;100.00
8298;BME280;4187;42.778;23.242;2024-01-11T00:55:12;96232.50;;;-5.91;100.00
8298;BME280;4187;42.778;23.242;2024-01-11T00:57:39;96240.13;;;-5.85;100.00
8298;BME280;4187;42.778;23.242;2024-01-11T01:00:07;96235.78;;;-5.84;100.00
8298;BME280;4187;42.778;23.242;2024-01-11T01:02:34;96239.38;;;-5.94;100.00
8298;BME280;4187;42.778;23.242;2024-01-11T01:05:01;96240.34;;;-6.00;100.00
8298;BME280;4187;42.778;23.242;2024-01-11T01:07:28;96253.13;;;-5.95;100.00
8298;BME280;4187;42.778;23.242;2024-01-11T01:09:56;96236.84;;;-5.96;100.00
8298;BME280;4187;42.778;23.242;2024-01-11T01:12:22;96247.91;;;-5.89;100.00
8298;BME280;4187;42.778;23.242;2024-01-11T01:14:50;96223.59;;;-6.25;100.00
8298;BME280;4187;42.778;23.242;2024-01-11T01:17:17;96239.91;;;-6.28;100.00
8298;BME280;4187;42.778;23.242;2024-01-11T01:19:44;96246.72;;;-6.27;100.00
8298;BME280;4187;42.778;23.242;2024-01-11T01:22:11;96250.38;;;-6.43;100.00
8298;BME280;4187;42.778;23.242;2024-01-11T01:24:37;96244.75;;;-6.69;100.00
8298;BME280;4187;42.778;23.242;2024-01-11T01:27:06;96237.25;;;-6.84;100.00
8298;BME280;4187;42.778;23.242;2024-01-11T01:29:33;96231.41;;;-6.98;100.00
8298;BME280;4187;42.778;23.242;2024-01-11T01:31:59;96211.25;;;-7.29;100.00
8298;BME280;4187;42.778;23.242;2024-01-11T01:34:26;96229.97;;;-7.20;100.00
8298;BME280;4187;42.778;23.242;2024-01-11T01:36:53;96209.78;;;-7.54;100.00
8298;BME280;4187;42.778;23.242;2024-01-11T01:39:20;96220.81;;;-7.44;100.00
8298;BME280;4187;42.778;23.242;2024-01-11T01:41:49;96207.91;;;-7.37;100.00
8298;BME280;4187;42.778;23.242;2024-01-11T01:44:17;96211.31;;;-7.33;100.00
8298;BME280;4187;42.778;23.242;2024-01-11T01:46:44;96213.84;;;-7.32;100.00
8298;BME280;4187;42.778;23.242;2024-01-11T01:49:11;96201.22;;;-7.50;100.00
8298;BME280;4187;42.778;23.242;2024-01-11T01:51:39;96214.81;;;-7.42;100.00
8298;BME280;4187;42.778;23.242;2024-01-11T01:54:06;96213.97;;;-7.45;100.00
8298;BME280;4187;42.778;23.242;2024-01-11T01:56:33;96189.25;;;-7.46;100.00
8298;BME280;4187;42.778;23.242;2024-01-11T01:59:00;96200.25;;;-7.40;100.00
8298;BME280;4187;42.778;23.242;2024-01-11T02:01:30;96201.00;;;-7.29;100.00
8298;BME280;4187;42.778;23.242;2024-01-11T02:03:57;96199.25;;;-7.25;100.00
8298;BME280;4187;42.778;23.242;2024-01-11T02:06:25;96194.91;;;-7.21;100.00
8298;BME280;4187;42.778;23.242;2024-01-11T02:08:55;96189.81;;;-7.23;100.00
8298;BME280;4187;42.778;23.242;2024-01-11T02:11:22;96189.84;;;-7.24;100.00
8298;BME280;4187;42.778;23.242;2024-01-11T02:13:50;96194.97;;;-7.24;100.00
8298;BME280;4187;42.778;23.242;2024-01-11T02:16:17;96193.22;;;-7.19;100.00
8298;BME280;4187;42.778;23.242;2024-01-11T02:18:45;96189.72;;;-7.15;100.00
8298;BME280;4187;42.778;23.242;2024-01-11T02:21:14;96176.19;;;-7.25;100.00
8298;BME280;4187;42.778;23.242;2024-01-11T02:23:44;96181.97;;;-7.09;100.00
8298;BME280;4187;42.778;23.242;2024-01-11T02:26:14;96183.84;;;-7.22;100.00
8298;BME280;4187;42.778;23.242;2024-01-11T02:28:43;96183.81;;;-7.20;100.00
8298;BME280;4187;42.778;23.242;2024-01-11T02:31:11;96186.25;;;-7.08;100.00
8298;BME280;4187;42.778;23.242;2024-01-11T02:33:39;96191.22;;;-6.99;100.00
8298;BME280;4187;42.778;23.242;2024-01-11T02:36:06;96195.47;;;-6.97;100.00
8298;BME280;4187;42.778;23.242;2024-01-11T02:38:34;96152.06;;;-7.13;100.00
8298;BME280;4187;42.778;23.242;2024-01-11T02:41:01;96197.00;;;-6.84;100.00
8298;BME280;4187;42.778;23.242;2024-01-11T02:43:29;96184.34;;;-6.97;100.00
8298;BME280;4187;42.778;23.242;2024-01-11T02:45:56;96186.94;;;-6.96;100.00
8298;BME280;4187;42.778;23.242;2024-01-11T02:48:27;96183.72;;;-7.11;100.00
8298;BME280;4187;42.778;23.242;2024-01-11T02:50:55;96177.72;;;-7.12;100.00
8298;BME280;4187;42.778;23.242;2024-01-11T02:53:22;96182.75;;;-7.04;100.00
8298;BME280;4187;42.778;23.242;2024-01-11T02:55:49;96175.03;;;-7.01;100.00
8298;BME280;4187;42.778;23.242;2024-01-11T02:58:16;96175.88;;;-7.01;100.00
8298;BME280;4187;42.778;23.242;2024-01-11T03:00:44;96140.25;;;-7.22;100.00
8298;BME280;4187;42.778;23.242;2024-01-11T03:03:11;96176.66;;;-6.96;100.00
8298;BME280;4187;42.778;23.242;2024-01-11T03:05:38;96180.88;;;-6.90;100.00
8298;BME280;4187;42.778;23.242;2024-01-11T03:08:05;96174.06;;;-6.94;100.00
8298;BME280;4187;42.778;23.242;2024-01-11T03:10:31;96168.00;;;-6.89;100.00
8298;BME280;4187;42.778;23.242;2024-01-11T03:12:59;96176.47;;;-6.82;100.00
8298;BME280;4187;42.778;23.242;2024-01-11T03:15:26;96178.16;;;-6.80;100.00
8298;BME280;4187;42.778;23.242;2024-01-11T03:17:54;96162.88;;;-6.87;100.00
8298;BME280;4187;42.778;23.242;2024-01-11T03:20:21;96170.44;;;-6.78;100.00
8298;BME280;4187;42.778;23.242;2024-01-11T03:22:50;96169.66;;;-6.82;100.00
8298;BME280;4187;42.778;23.242;2024-01-11T03:25:17;96144.09;;;-6.91;100.00
8298;BME280;4187;42.778;23.242;2024-01-11T03:27:44;96141.59;;;-6.95;100.00
8298;BME280;4187;42.778;23.242;2024-01-11T03:30:11;96176.47;;;-6.82;100.00
8298;BME280;4187;42.778;23.242;2024-01-11T03:32:38;96173.00;;;-6.78;100.00
8298;BME280;4187;42.778;23.242;2024-01-11T03:35:07;96131.50;;;-7.07;100.00
8298;BME280;4187;42.778;23.242;2024-01-11T03:37:35;96166.47;;;-7.00;100.00
8298;BME280;4187;42.778;23.242;2024-01-11T03:40:03;96128.31;;;-7.24;100.00
8298;BME280;4187;42.778;23.242;2024-01-11T03:42:30;96175.28;;;-7.22;100.00
8298;BME280;4187;42.778;23.242;2024-01-11T03:44:57;96171.91;;;-7.26;100.00
8298;BME280;4187;42.778;23.242;2024-01-11T03:47:24;96170.25;;;-7.32;100.00
8298;BME280;4187;42.778;23.242;2024-01-11T03:49:51;96159.28;;;-7.43;100.00
8298;BME280;4187;42.778;23.242;2024-01-11T03:52:19;96161.97;;;-7.56;100.00
8298;BME280;4187;42.778;23.242;2024-01-11T03:54:46;96149.34;;;-7.73;100.00
8298;BME280;4187;42.778;23.242;2024-01-11T03:57:13;96151.94;;;-7.74;100.00
8298;BME280;4187;42.778;23.242;2024-01-11T03:59:40;96135.81;;;-7.84;100.00
8298;BME280;4187;42.778;23.242;2024-01-11T04:02:07;96109.44;;;-7.94;100.00
8298;BME280;4187;42.778;23.242;2024-01-11T04:04:33;96065.34;;;-8.24;100.00
8298;BME280;4187;42.778;23.242;2024-01-11T04:07:00;96145.94;;;-7.75;100.00
8298;BME280;4187;42.778;23.242;2024-01-11T04:09:28;96128.22;;;-7.93;100.00
8298;BME280;4187;42.778;23.242;2024-01-11T04:11:55;96146.84;;;-7.76;100.00
8298;BME280;4187;42.778;23.242;2024-01-11T04:14:22;96144.34;;;-7.85;100.00
8298;BME280;4187;42.778;23.242;2024-01-11T04:16:49;96135.81;;;-7.84;100.00
8298;BME280;4187;42.778;23.242;2024-01-11T04:19:15;96133.25;;;-7.85;100.00
8298;BME280;4187;42.778;23.242;2024-01-11T04:21:42;96134.09;;;-7.83;100.00
8298;BME280;4187;42.778;23.242;2024-01-11T04:24:09;96137.47;;;-7.80;100.00
8298;BME280;4187;42.778;23.242;2024-01-11T04:26:37;96135.72;;;-7.75;100.00
8298;BME280;4187;42.778;23.242;2024-01-11T04:29:04;96142.50;;;-7.71;100.00
8298;BME280;4187;42.778;23.242;2024-01-11T04:31:31;96139.88;;;-7.66;100.00
8298;BME280;4187;42.778;23.242;2024-01-11T04:33:58;96139.84;;;-7.65;100.00
8298;BME280;4187;42.778;23.242;2024-01-11T04:36:25;96138.91;;;-7.56;100.00
8298;BME280;4187;42.778;23.242;2024-01-11T04:38:52;96137.25;;;-7.57;100.00
8298;BME280;4187;42.778;23.242;2024-01-11T04:41:19;96140.53;;;-7.46;100.00
8298;BME280;4187;42.778;23.242;2024-01-11T04:43:47;96143.88;;;-7.43;100.00
8298;BME280;4187;42.778;23.242;2024-01-11T04:46:15;96145.56;;;-7.39;100.00
8298;BME280;4187;42.778;23.242;2024-01-11T04:48:42;96146.34;;;-7.35;100.00
8298;BME280;4187;42.778;23.242;2024-01-11T04:51:09;96148.84;;;-7.28;100.00
8298;BME280;4187;42.778;23.242;2024-01-11T04:53:37;96143.69;;;-7.26;100.00
8298;BME280;4187;42.778;23.242;2024-01-11T04:56:05;96149.69;;;-7.27;100.00
8298;BME280;4187;42.778;23.242;2024-01-11T04:58:32;96153.97;;;-7.29;100.00
8298;BME280;4187;42.778;23.242;2024-01-11T05:01:01;96154.91;;;-7.33;100.00
8298;BME280;4187;42.778;23.242;2024-01-11T05:03:28;96160.03;;;-7.35;100.00
8298;BME280;4187;42.778;23.242;2024-01-11T05:05:55;96107.31;;;-7.57;100.00
8298;BME280;4187;42.778;23.242;2024-01-11T05:08:22;96074.19;;;-7.72;100.00
8298;BME280;4187;42.778;23.242;2024-01-11T05:10:49;96143.69;;;-7.24;100.00
8298;BME280;4187;42.778;23.242;2024-01-11T05:13:17;96113.03;;;-7.35;100.00
8298;BME280;4187;42.778;23.242;2024-01-11T05:15:44;96135.84;;;-7.12;100.00
8298;BME280;4187;42.778;23.242;2024-01-11T05:18:13;96140.94;;;-7.09;100.00
8298;BME280;4187;42.778;23.242;2024-01-11T05:20:40;96092.47;;;-7.31;100.00
8298;BME280;4187;42.778;23.242;2024-01-11T05:23:07;96135.16;;;-7.27;100.00
8298;BME280;4187;42.778;23.242;2024-01-11T05:25:34;96134.72;;;-7.62;100.00
8298;BME280;4187;42.778;23.242;2024-01-11T05:28:01;96089.97;;;-8.10;100.00
8298;BME280;4187;42.778;23.242;2024-01-11T05:30:28;96124.88;;;-8.01;100.00
8298;BME280;4187;42.778;23.242;2024-01-11T05:32:56;96101.94;;;-8.12;100.00
8298;BME280;4187;42.778;23.242;2024-01-11T05:35:24;96088.47;;;-8.29;100.00
8298;BME280;4187;42.778;23.242;2024-01-11T05:37:52;96123.28;;;-8.11;100.00
8298;BME280;4187;42.778;23.242;2024-01-11T05:40:20;96120.63;;;-8.05;100.00
8298;BME280;4187;42.778;23.242;2024-01-11T05:42:47;96117.16;;;-7.98;100.00
8298;BME280;4187;42.778;23.242;2024-01-11T05:45:14;96100.06;;;-7.96;100.00
8298;BME280;4187;42.778;23.242;2024-01-11T05:47:42;96109.34;;;-7.86;100.00
8298;BME280;4187;42.778;23.242;2024-01-11T05:50:09;96113.53;;;-7.77;100.00
8298;BME280;4187;42.778;23.242;2024-01-11T05:52:38;96115.19;;;-7.70;100.00
8298;BME280;4187;42.778;23.242;2024-01-11T05:55:07;96103.09;;;-7.61;100.00
8298;BME280;4187;42.778;23.242;2024-01-11T05:57:34;96095.34;;;-7.56;100.00
8298;BME280;4187;42.778;23.242;2024-01-11T06:00:01;96107.22;;;-7.46;100.00
8298;BME280;4187;42.778;23.242;2024-01-11T06:02:28;96106.22;;;-7.38;100.00
8298;BME280;4187;42.778;23.242;2024-01-11T06:04:57;96108.69;;;-7.29;100.00
8298;BME280;4187;42.778;23.242;2024-01-11T06:07:23;96101.78;;;-7.23;100.00
8298;BME280;4187;42.778;23.242;2024-01-11T06:09:51;96102.59;;;-7.21;100.00
8298;BME280;4187;42.778;23.242;2024-01-11T06:12:18;96103.31;;;-7.10;100.00
8298;BME280;4187;42.778;23.242;2024-01-11T06:14:45;96094.69;;;-7.05;100.00
8298;BME280;4187;42.778;23.242;2024-01-11T06:17:12;96074.34;;;-7.17;100.00
8298;BME280;4187;42.778;23.242;2024-01-11T06:19:39;96095.44;;;-6.97;100.00
8298;BME280;4187;42.778;23.242;2024-01-11T06:22:06;96091.88;;;-6.88;100.00
8298;BME280;4187;42.778;23.242;2024-01-11T06:24:33;96100.25;;;-6.76;100.00
8298;BME280;4187;42.778;23.242;2024-01-11T06:27:01;96091.44;;;-6.59;100.00
8298;BME280;4187;42.778;23.242;2024-01-11T06:29:28;96091.28;;;-6.47;100.00
8298;BME280;4187;42.778;23.242;2024-01-11T06:31:55;96093.56;;;-6.32;100.00
8298;BME280;4187;42.778;23.242;2024-01-11T06:34:21;96091.63;;;-6.18;100.00
8298;BME280;4187;42.778;23.242;2024-01-11T06:36:48;96088.81;;;-6.04;100.00
8298;BME280;4187;42.778;23.242;2024-01-11T06:39:15;96057.97;;;-6.03;100.00
8298;BME280;4187;42.778;23.242;2024-01-11T06:41:42;96082.94;;;-5.67;100.00
8298;BME280;4187;42.778;23.242;2024-01-11T06:44:10;96078.41;;;-5.54;100.00
8298;BME280;4187;42.778;23.242;2024-01-11T06:46:37;96072.13;;;-5.38;100.00
8298;BME280;4187;42.778;23.242;2024-01-11T06:49:05;96059.09;;;-5.32;100.00
8298;BME280;4187;42.778;23.242;2024-01-11T06:51:32;96081.50;;;-4.96;100.00
8298;BME280;4187;42.778;23.242;2024-01-11T06:54:00;96058.09;;;-4.87;100.00
8298;BME280;4187;42.778;23.242;2024-01-11T06:56:27;96085.59;;;-4.49;100.00
8298;BME280;4187;42.778;23.242;2024-01-11T06:58:54;96079.78;;;-4.23;100.00
8298;BME280;4187;42.778;23.242;2024-01-11T07:01:22;96085.09;;;-3.95;100.00
8298;BME280;4187;42.778;23.242;2024-01-11T07:03:49;96086.16;;;-3.70;100.00
8298;BME280;4187;42.778;23.242;2024-01-11T07:06:16;96085.28;;;-3.38;100.00
8298;BME280;4187;42.778;23.242;2024-01-11T07:08:43;96082.03;;;-2.85;100.00
8298;BME280;4187;42.778;23.242;2024-01-11T07:11:09;96086.34;;;-2.58;100.00
8298;BME280;4187;42.778;23.242;2024-01-11T07:13:36;96071.38;;;-1.69;100.00
8298;BME280;4187;42.778;23.242;2024-01-11T07:16:04;96080.88;;;-1.45;100.00
8298;BME280;4187;42.778;23.242;2024-01-11T07:18:32;96073.47;;;-1.31;100.00
8298;BME280;4187;42.778;23.242;2024-01-11T07:20:59;96062.38;;;-1.35;95.57
8298;BME280;4187;42.778;23.242;2024-01-11T07:23:26;96077.03;;;-1.10;93.22
8298;BME280;4187;42.778;23.242;2024-01-11T07:25:53;96051.41;;;-1.18;90.04
8298;BME280;4187;42.778;23.242;2024-01-11T07:28:19;96083.19;;;-0.90;88.92
8298;BME280;4187;42.778;23.242;2024-01-11T07:30:50;96079.78;;;-0.69;87.66
8298;BME280;4187;42.778;23.242;2024-01-11T07:33:17;96081.75;;;-0.52;84.36
8298;BME280;4187;42.778;23.242;2024-01-11T07:35:45;96088.78;;;-0.34;83.86
8298;BME280;4187;42.778;23.242;2024-01-11T07:38:12;96087.28;;;-0.18;77.48
8298;BME280;4187;42.778;23.242;2024-01-11T07:40:39;96091.16;;;-0.06;76.95
8298;BME280;4187;42.778;23.242;2024-01-11T07:43:05;96086.16;;;0.10;75.17
8298;BME280;4187;42.778;23.242;2024-01-11T07:45:32;96082.16;;;0.23;75.11
8298;BME280;4187;42.778;23.242;2024-01-11T07:47:59;96088.19;;;0.43;73.07
8298;BME280;4187;42.778;23.242;2024-01-11T07:50:28;96082.59;;;0.54;71.78
8298;BME280;4187;42.778;23.242;2024-01-11T07:52:56;96071.00;;;0.61;69.65
8298;BME280;4187;42.778;23.242;2024-01-11T07:55:23;96079.66;;;0.62;68.00
8298;BME280;4187;42.778;23.242;2024-01-11T07:57:50;96081.31;;;0.63;67.97
8298;BME280;4187;42.778;23.242;2024-01-11T08:00:17;96076.38;;;0.77;68.98
8298;BME280;4187;42.778;23.242;2024-01-11T08:02:44;96065.50;;;0.87;69.22
8298;BME280;4187;42.778;23.242;2024-01-11T08:05:11;96066.66;;;1.19;68.25
8298;BME280;4187;42.778;23.242;2024-01-11T08:07:38;96068.72;;;1.31;65.94
8298;BME280;4187;42.778;23.242;2024-01-11T08:10:07;96061.28;;;1.42;65.81
8298;BME280;4187;42.778;23.242;2024-01-11T08:12:36;96064.41;;;1.49;66.62
8298;BME280;4187;42.778;23.242;2024-01-11T08:15:03;96036.31;;;1.38;65.34
8298;BME280;4187;42.778;23.242;2024-01-11T08:17:30;96054.16;;;1.64;63.23
8298;BME280;4187;42.778;23.242;2024-01-11T08:19:56;96049.75;;;1.84;62.73
8298;BME280;4187;42.778;23.242;2024-01-11T08:22:23;96049.09;;;1.97;62.28
8298;BME280;4187;42.778;23.242;2024-01-11T08:24:50;96042.22;;;2.13;59.98
8298;BME280;4187;42.778;23.242;2024-01-11T08:27:18;96058.22;;;2.40;59.21
8298;BME280;4187;42.778;23.242;2024-01-11T08:29:45;96023.38;;;2.42;58.36
8298;BME280;4187;42.778;23.242;2024-01-11T08:32:12;96045.91;;;2.76;58.81
8298;BME280;4187;42.778;23.242;2024-01-11T08:34:39;96052.72;;;2.96;57.52
8298;BME280;4187;42.778;23.242;2024-01-11T08:37:06;96060.41;;;3.15;56.68
8298;BME280;4187;42.778;23.242;2024-01-11T08:39:33;96060.34;;;3.16;58.09
8298;BME280;4187;42.778;23.242;2024-01-11T08:42:00;96035.19;;;3.31;62.43
8298;BME280;4187;42.778;23.242;2024-01-11T08:44:28;96060.19;;;3.82;56.30
8298;BME280;4187;42.778;23.242;2024-01-11T08:46:56;96059.16;;;4.15;55.30
8298;BME280;4187;42.778;23.242;2024-01-11T08:49:24;96055.03;;;4.41;53.58
8298;BME280;4187;42.778;23.242;2024-01-11T08:51:51;96036.78;;;4.55;52.12
8298;BME280;4187;42.778;23.242;2024-01-11T08:54:17;96041.84;;;4.72;51.93
8298;BME280;4187;42.778;23.242;2024-01-11T08:56:46;96031.50;;;4.85;49.92
8298;BME280;4187;42.778;23.242;2024-01-11T08:59:13;96041.28;;;4.81;48.78
8298;BME280;4187;42.778;23.242;2024-01-11T09:01:42;96027.47;;;4.79;48.83
8298;BME280;4187;42.778;23.242;2024-01-11T09:04:08;96016.44;;;4.60;49.85
8298;BME280;4187;42.778;23.242;2024-01-11T09:06:35;96031.94;;;4.63;50.21
8298;BME280;4187;42.778;23.242;2024-01-11T09:09:02;96011.09;;;4.48;49.89
8298;BME280;4187;42.778;23.242;2024-01-11T09:11:35;96000.66;;;4.62;49.97
8298;BME280;4187;42.778;23.242;2024-01-11T09:14:02;96005.00;;;5.05;51.40
8298;BME280;4187;42.778;23.242;2024-01-11T09:16:29;96014.50;;;5.34;49.13
8298;BME280;4187;42.778;23.242;2024-01-11T09:18:58;95987.66;;;5.45;48.99
8298;BME280;4187;42.778;23.242;2024-01-11T09:21:25;95998.56;;;5.52;47.26
8298;BME280;4187;42.778;23.242;2024-01-11T09:23:52;95991.00;;;5.47;48.45
8298;BME280;4187;42.778;23.242;2024-01-11T09:26:19;95994.31;;;5.63;46.53
8298;BME280;4187;42.778;23.242;2024-01-11T09:28:46;95988.19;;;5.91;49.21
8298;BME280;4187;42.778;23.242;2024-01-11T09:31:13;95992.38;;;6.20;46.30
8298;BME280;4187;42.778;23.242;2024-01-11T09:33:39;95992.09;;;6.37;46.25
8298;BME280;4187;42.778;23.242;2024-01-11T09:36:09;95990.41;;;6.49;44.85
8298;BME280;4187;42.778;23.242;2024-01-11T09:38:36;95982.19;;;6.16;43.86
8298;BME280;4187;42.778;23.242;2024-01-11T09:41:06;95913.47;;;5.59;44.57
8298;BME280;4187;42.778;23.242;2024-01-11T09:43:34;95938.03;;;5.70;45.90
8298;BME280;4187;42.778;23.242;2024-01-11T09:46:03;95961.53;;;5.58;45.44
8298;BME280;4187;42.778;23.242;2024-01-11T09:48:32;95959.59;;;5.47;46.18
8298;BME280;4187;42.778;23.242;2024-01-11T09:51:01;95868.03;;;4.51;48.08
8298;BME280;4187;42.778;23.242;2024-01-11T09:53:32;95928.13;;;4.79;49.40
8298;BME280;4187;42.778;23.242;2024-01-11T09:55:59;95940.16;;;4.68;48.92
8298;BME280;4187;42.778;23.242;2024-01-11T09:58:26;95936.25;;;4.61;51.24
8298;BME280;4187;42.778;23.242;2024-01-11T10:00:54;95933.53;;;4.48;49.73
8298;BME280;4187;42.778;23.242;2024-01-11T10:03:23;95920.06;;;4.26;50.99
8298;BME280;4187;42.778;23.242;2024-01-11T10:05:50;95935.19;;;4.21;50.66
8298;BME280;4187;42.778;23.242;2024-01-11T10:08:18;95927.81;;;4.42;52.95
8298;BME280;4187;42.778;23.242;2024-01-11T10:10:47;95917.84;;;4.62;51.38
8298;BME280;4187;42.778;23.242;2024-01-11T10:13:14;95888.28;;;4.62;51.20
8298;BME280;4187;42.778;23.242;2024-01-11T10:15:42;95878.91;;;4.72;51.29
8298;BME280;4187;42.778;23.242;2024-01-11T10:18:09;95879.69;;;5.01;52.10
8298;BME280;4187;42.778;23.242;2024-01-11T10:20:37;95895.06;;;5.46;49.70
8298;BME280;4187;42.778;23.242;2024-01-11T10:23:04;95888.25;;;5.97;52.11
8298;BME280;4187;42.778;23.242;2024-01-11T10:25:31;95864.78;;;6.08;50.26
8298;BME280;4187;42.778;23.242;2024-01-11T10:27:59;95814.28;;;6.19;50.67
8298;BME280;4187;42.778;23.242;2024-01-11T10:30:26;95879.53;;;6.97;49.52
8298;BME280;4187;42.778;23.242;2024-01-11T10:32:53;95873.81;;;7.40;48.35
8298;BME280;4187;42.778;23.242;2024-01-11T10:35:20;95869.63;;;7.61;46.96
8298;BME280;4187;42.778;23.242;2024-01-11T10:37:50;95836.38;;;7.72;46.20
8298;BME280;4187;42.778;23.242;2024-01-11T10:40:19;95860.34;;;8.03;45.92
8298;BME280;4187;42.778;23.242;2024-01-11T10:42:50;95849.53;;;8.18;44.82
8298;BME280;4187;42.778;23.242;2024-01-11T10:45:20;95856.75;;;8.50;44.67
8298;BME280;4187;42.778;23.242;2024-01-11T10:47:51;95851.97;;;8.88;44.95
8298;BME280;4187;42.778;23.242;2024-01-11T10:50:22;95845.72;;;9.22;44.12
8298;BME280;4187;42.778;23.242;2024-01-11T10:53:02;95843.28;;;9.41;43.64
8298;BME280;4187;42.778;23.242;2024-01-11T10:55:32;95831.63;;;9.55;43.40
8298;BME280;4187;42.778;23.242;2024-01-11T10:58:00;95830.41;;;9.59;43.94
8298;BME280;4187;42.778;23.242;2024-01-11T11:00:28;95812.03;;;9.69;42.44
8298;BME280;4187;42.778;23.242;2024-01-11T11:02:55;95788.06;;;9.72;42.74
8298;BME280;4187;42.778;23.242;2024-01-11T11:05:22;95798.06;;;9.89;42.22
8298;BME280;4187;42.778;23.242;2024-01-11T11:07:51;95795.66;;;9.86;42.82
8298;BME280;4187;42.778;23.242;2024-01-11T11:10:19;95779.22;;;9.93;42.55
8298;BME280;4187;42.778;23.242;2024-01-11T11:12:48;95762.56;;;9.72;41.22
8298;BME280;4187;42.778;23.242;2024-01-11T11:15:15;95752.56;;;9.55;41.67
8298;BME280;4187;42.778;23.242;2024-01-11T11:17:43;95776.97;;;9.89;42.11
8298;BME280;4187;42.778;23.242;2024-01-11T11:20:11;95768.31;;;9.87;41.50
8298;BME280;4187;42.778;23.242;2024-01-11T11:22:40;95758.88;;;10.05;42.93
8298;BME280;4187;42.778;23.242;2024-01-11T11:25:08;95734.31;;;10.04;43.50
8298;BME280;4187;42.778;23.242;2024-01-11T11:27:35;95722.72;;;10.16;41.83
8298;BME280;4187;42.778;23.242;2024-01-11T11:30:03;95747.63;;;10.54;41.93
8298;BME280;4187;42.778;23.242;2024-01-11T11:32:37;95741.69;;;10.61;41.99
8298;BME280;4187;42.778;23.242;2024-01-11T11:35:06;95684.25;;;10.35;41.94
8298;BME280;4187;42.778;23.242;2024-01-11T11:37:36;95728.50;;;10.71;41.96
8298;BME280;4187;42.778;23.242;2024-01-11T11:40:04;95710.13;;;10.50;41.92
8298;BME280;4187;42.778;23.242;2024-01-11T11:42:33;95714.88;;;10.56;42.18
8298;BME280;4187;42.778;23.242;2024-01-11T11:45:00;95723.22;;;10.71;43.43
8298;BME280;4187;42.778;23.242;2024-01-11T11:47:34;95718.50;;;10.65;42.75
8298;BME280;4187;42.778;23.242;2024-01-11T11:50:06;95705.41;;;10.54;43.14
8298;BME280;4187;42.778;23.242;2024-01-11T11:52:35;95703.56;;;10.45;44.25
8298;BME280;4187;42.778;23.242;2024-01-11T11:55:03;95702.31;;;10.39;45.46
8298;BME280;4187;42.778;23.242;2024-01-11T11:57:30;95705.31;;;10.65;46.19
8298;BME280;4187;42.778;23.242;2024-01-11T11:59:58;95688.94;;;10.80;44.47
8298;BME280;4187;42.778;23.242;2024-01-11T12:02:25;95680.34;;;10.98;45.55
8298;BME280;4187;42.778;23.242;2024-01-11T12:04:53;95669.91;;;11.06;45.94
8298;BME280;4187;42.778;23.242;2024-01-11T12:07:21;95669.78;;;11.17;44.39
8298;BME280;4187;42.778;23.242;2024-01-11T12:09:51;95660.63;;;11.30;43.40
8298;BME280;4187;42.778;23.242;2024-01-11T12:12:17;95646.28;;;11.43;43.82
8298;BME280;4187;42.778;23.242;2024-01-11T12:14:46;95625.97;;;11.53;42.84
8298;BME280;4187;42.778;23.242;2024-01-11T12:17:13;95651.78;;;11.87;43.29
8298;BME280;4187;42.778;23.242;2024-01-11T12:19:39;95648.19;;;11.79;42.46
8298;BME280;4187;42.778;23.242;2024-01-11T12:22:06;95632.19;;;11.80;42.49
8298;BME280;4187;42.778;23.242;2024-01-11T12:24:34;95645.69;;;12.24;43.44
8298;BME280;4187;42.778;23.242;2024-01-11T12:27:01;95641.34;;;12.23;41.82
8298;BME280;4187;42.778;23.242;2024-01-11T12:29:28;95642.75;;;12.27;41.63
8298;BME280;4187;42.778;23.242;2024-01-11T12:31:56;95641.06;;;12.26;42.21
8298;BME280;4187;42.778;23.242;2024-01-11T12:34:24;95634.84;;;12.17;41.31
8298;BME280;4187;42.778;23.242;2024-01-11T12:36:51;95625.44;;;11.95;41.50
8298;BME280;4187;42.778;23.242;2024-01-11T12:39:20;95628.59;;;11.53;41.86
8298;BME280;4187;42.778;23.242;2024-01-11T12:41:50;95623.88;;;11.47;41.90
8298;BME280;4187;42.778;23.242;2024-01-11T12:44:18;95603.63;;;11.18;43.09
8298;BME280;4187;42.778;23.242;2024-01-11T12:46:47;95620.16;;;11.39;43.05
8298;BME280;4187;42.778;23.242;2024-01-11T12:49:14;95612.94;;;11.32;41.73
8298;BME280;4187;42.778;23.242;2024-01-11T12:51:41;95613.50;;;10.88;42.83
8298;BME280;4187;42.778;23.242;2024-01-11T12:54:12;95608.75;;;11.01;44.65
8298;BME280;4187;42.778;23.242;2024-01-11T12:56:42;95573.47;;;10.82;44.32
8298;BME280;4187;42.778;23.242;2024-01-11T12:59:11;95605.03;;;10.94;42.95
8298;BME280;4187;42.778;23.242;2024-01-11T13:01:38;95587.34;;;10.65;43.06
8298;BME280;4187;42.778;23.242;2024-01-11T13:04:07;95612.34;;;10.42;44.21
8298;BME280;4187;42.778;23.242;2024-01-11T13:06:34;95570.94;;;10.33;44.28
8298;BME280;4187;42.778;23.242;2024-01-11T13:09:02;95576.09;;;10.44;43.93